createdAt,value
2022-11-24T00:00:12.790Z,0.00
2022-11-24T00:01:12.726Z,0.00
2022-11-24T00:02:12.783Z,0.00
2022-11-24T00:03:12.797Z,0.00
2022-11-24T00:04:12.724Z,0.00
2022-11-24T00:05:12.672Z,0.00
2022-11-24T00:06:12.685Z,0.00
2022-11-24T00:07:12.699Z,0.00
2022-11-24T00:08:12.658Z,0.00
2022-11-24T00:09:12.658Z,0.00
2022-11-24T00:10:12.613Z,0.00
2022-11-24T00:11:12.601Z,0.00
2022-11-24T00:12:12.591Z,0.00
2022-11-24T00:13:12.593Z,0.00
2022-11-24T00:14:12.601Z,0.00
2022-11-24T00:15:12.542Z,0.00
2022-11-24T00:16:12.622Z,0.00
2022-11-24T00:17:12.522Z,0.00
2022-11-24T00:18:12.511Z,0.00
2022-11-24T00:19:17.001Z,0.00
2022-11-24T00:20:13.500Z,0.00
2022-11-24T00:21:12.536Z,0.00
2022-11-24T00:22:12.464Z,0.00
2022-11-24T00:23:12.449Z,0.00
2022-11-24T00:24:12.464Z,0.00
2022-11-24T00:25:12.411Z,0.00
2022-11-24T00:26:12.408Z,0.00
2022-11-24T00:27:12.387Z,0.00
2022-11-24T00:28:12.379Z,0.00
2022-11-24T00:29:12.392Z,0.00
2022-11-24T00:30:12.349Z,0.00
2022-11-24T00:31:16.752Z,0.00
2022-11-24T00:32:13.329Z,0.00
2022-11-24T00:33:12.320Z,0.00
2022-11-24T00:34:12.340Z,0.00
2022-11-24T00:35:12.279Z,0.00
2022-11-24T00:36:12.292Z,0.00
2022-11-24T00:37:12.261Z,0.00
2022-11-24T00:38:12.267Z,0.00
2022-11-24T00:39:12.270Z,0.00
2022-11-24T00:40:12.218Z,0.00
2022-11-24T00:41:12.208Z,0.00
2022-11-24T00:42:12.198Z,0.00
2022-11-24T00:43:12.188Z,0.00
2022-11-24T00:44:12.220Z,0.00
2022-11-24T00:45:14.157Z,0.00
2022-11-24T00:46:12.236Z,0.00
2022-11-24T00:47:12.194Z,0.00
2022-11-24T00:48:12.136Z,0.00
2022-11-24T00:49:12.128Z,0.00
2022-11-24T00:50:12.097Z,0.00
2022-11-24T00:51:12.077Z,0.00
2022-11-24T00:52:12.088Z,0.00
2022-11-24T00:53:12.047Z,0.00
2022-11-24T00:54:12.070Z,0.00
2022-11-24T00:55:12.035Z,0.00
2022-11-24T00:56:12.012Z,0.00
2022-11-24T00:57:12.007Z,0.00
2022-11-24T00:58:12.008Z,0.00
2022-11-24T00:59:12.021Z,0.00
2022-11-24T01:00:11.957Z,0.00
2022-11-24T01:01:12.014Z,0.00
2022-11-24T01:02:12.073Z,0.00
2022-11-24T01:03:11.936Z,0.00
2022-11-24T01:04:11.942Z,0.00
2022-11-24T01:05:11.915Z,0.00
2022-11-24T01:06:11.895Z,0.00
2022-11-24T01:07:11.912Z,0.00
2022-11-24T01:08:11.876Z,0.00
2022-11-24T01:09:11.876Z,0.00
2022-11-24T01:10:11.825Z,0.00
2022-11-24T01:11:11.834Z,0.00
2022-11-24T01:12:11.813Z,0.00
2022-11-24T01:13:11.816Z,0.00
2022-11-24T01:14:11.806Z,0.00
2022-11-24T01:15:11.765Z,0.00
2022-11-24T01:16:11.841Z,0.00
2022-11-24T01:17:11.745Z,0.00
2022-11-24T01:18:11.724Z,0.00
2022-11-24T01:19:11.745Z,0.00
2022-11-24T01:20:11.695Z,0.00
2022-11-24T01:21:11.702Z,0.00
2022-11-24T01:22:11.675Z,0.00
2022-11-24T01:23:11.665Z,0.00
2022-11-24T01:24:11.684Z,0.00
2022-11-24T01:25:11.643Z,0.00
2022-11-24T01:26:11.627Z,0.00
2022-11-24T01:27:11.629Z,0.00
2022-11-24T01:28:11.594Z,0.00
2022-11-24T01:29:11.617Z,0.00
2022-11-24T01:30:11.600Z,0.00
2022-11-24T01:31:11.645Z,0.00
2022-11-24T01:32:11.551Z,0.00
2022-11-24T01:33:11.545Z,0.00
2022-11-24T01:34:11.632Z,0.00
2022-11-24T01:35:11.519Z,0.00
2022-11-24T01:36:11.522Z,0.00
2022-11-24T01:37:11.486Z,0.00
2022-11-24T01:38:11.463Z,0.00
2022-11-24T01:39:11.499Z,0.00
2022-11-24T01:40:11.442Z,0.00
2022-11-24T01:41:11.433Z,0.00
2022-11-24T01:42:11.411Z,0.00
2022-11-24T01:43:11.417Z,0.00
2022-11-24T01:44:11.412Z,0.00
2022-11-24T01:45:11.390Z,0.00
2022-11-24T01:46:11.427Z,0.00
2022-11-24T01:47:12.110Z,0.00
2022-11-24T01:48:11.333Z,0.00
2022-11-24T01:49:11.325Z,0.00
2022-11-24T01:50:11.341Z,0.00
2022-11-24T01:51:11.310Z,0.00
2022-11-24T01:52:11.311Z,0.00
2022-11-24T01:53:11.293Z,0.00
2022-11-24T01:54:11.263Z,0.00
2022-11-24T01:55:11.291Z,0.00
2022-11-24T01:56:11.239Z,0.00
2022-11-24T01:57:11.250Z,0.00
2022-11-24T01:58:11.442Z,0.00
2022-11-24T01:59:11.201Z,0.00
2022-11-24T02:00:11.200Z,0.00
2022-11-24T02:01:11.209Z,0.00
2022-11-24T02:02:11.227Z,0.00
2022-11-24T02:03:11.148Z,0.00
2022-11-24T02:04:11.134Z,0.00
2022-11-24T02:05:11.166Z,0.00
2022-11-24T02:06:11.146Z,0.00
2022-11-24T02:07:11.145Z,0.00
2022-11-24T02:08:11.093Z,0.00
2022-11-24T02:09:12.037Z,0.00
2022-11-24T02:10:11.093Z,0.00
2022-11-24T02:11:11.060Z,0.00
2022-11-24T02:12:11.036Z,0.00
2022-11-24T02:13:11.019Z,0.00
2022-11-24T02:14:11.006Z,0.00
2022-11-24T02:15:11.028Z,0.00
2022-11-24T02:16:11.069Z,0.00
2022-11-24T02:17:10.974Z,0.00
2022-11-24T02:18:10.950Z,0.00
2022-11-24T02:19:10.937Z,0.00
2022-11-24T02:20:10.947Z,0.00
2022-11-24T02:21:31.914Z,0.00
2022-11-24T02:22:10.912Z,0.00
2022-11-24T02:23:10.886Z,0.00
2022-11-24T02:24:10.890Z,0.00
2022-11-24T02:25:10.897Z,0.00
2022-11-24T02:26:10.847Z,0.00
2022-11-24T02:27:10.846Z,0.00
2022-11-24T02:28:10.816Z,0.00
2022-11-24T02:29:10.810Z,0.00
2022-11-24T02:30:10.836Z,0.00
2022-11-24T02:31:10.831Z,0.00
2022-11-24T02:32:10.774Z,0.00
2022-11-24T02:33:10.755Z,0.00
2022-11-24T02:34:10.754Z,0.00
2022-11-24T02:35:10.756Z,0.00
2022-11-24T02:36:10.715Z,0.00
2022-11-24T02:37:10.711Z,0.00
2022-11-24T02:38:10.727Z,0.00
2022-11-24T02:39:10.694Z,0.00
2022-11-24T02:40:10.748Z,0.00
2022-11-24T02:41:10.682Z,0.00
2022-11-24T02:42:10.646Z,0.00
2022-11-24T02:43:10.630Z,0.00
2022-11-24T02:44:10.613Z,0.00
2022-11-24T02:45:10.646Z,0.00
2022-11-24T02:46:10.635Z,0.00
2022-11-24T02:47:11.472Z,0.00
2022-11-24T02:48:10.573Z,0.00
2022-11-24T02:49:10.545Z,0.00
2022-11-24T02:50:10.571Z,0.00
2022-11-24T02:51:10.525Z,0.00
2022-11-24T02:52:10.518Z,0.00
2022-11-24T02:53:10.493Z,0.00
2022-11-24T02:54:10.493Z,0.00
2022-11-24T02:55:10.505Z,0.00
2022-11-24T02:56:10.452Z,0.00
2022-11-24T02:57:10.454Z,0.00
2022-11-24T02:58:10.432Z,0.00
2022-11-24T02:59:10.437Z,0.00
2022-11-24T03:00:10.433Z,0.00
2022-11-24T03:01:10.469Z,0.00
2022-11-24T03:02:10.394Z,0.00
2022-11-24T03:03:11.102Z,0.00
2022-11-24T03:04:11.135Z,0.00
2022-11-24T03:05:10.372Z,0.00
2022-11-24T03:06:10.353Z,0.00
2022-11-24T03:07:10.374Z,0.00
2022-11-24T03:08:10.327Z,0.00
2022-11-24T03:09:10.293Z,0.00
2022-11-24T03:10:10.312Z,0.00
2022-11-24T03:11:10.262Z,0.00
2022-11-24T03:12:10.253Z,0.00
2022-11-24T03:13:10.261Z,0.00
2022-11-24T03:14:10.228Z,0.00
2022-11-24T03:15:10.249Z,0.00
2022-11-24T03:16:10.251Z,0.00
2022-11-24T03:17:10.190Z,0.00
2022-11-24T03:18:10.461Z,0.00
2022-11-24T03:19:10.173Z,0.00
2022-11-24T03:20:10.193Z,0.00
2022-11-24T03:21:10.130Z,0.00
2022-11-24T03:22:10.890Z,0.00
2022-11-24T03:23:10.106Z,0.00
2022-11-24T03:24:10.110Z,0.00
2022-11-24T03:25:10.112Z,0.00
2022-11-24T03:26:10.078Z,0.00
2022-11-24T03:27:10.190Z,0.00
2022-11-24T03:28:10.048Z,0.00
2022-11-24T03:29:10.035Z,0.00
2022-11-24T03:30:10.061Z,0.00
2022-11-24T03:31:10.045Z,0.00
2022-11-24T03:32:10.000Z,0.00
2022-11-24T03:33:09.983Z,0.00
2022-11-24T03:34:09.974Z,0.00
2022-11-24T03:35:09.980Z,0.00
2022-11-24T03:36:09.944Z,0.00
2022-11-24T03:37:09.941Z,0.00
2022-11-24T03:38:09.931Z,0.00
2022-11-24T03:39:09.909Z,0.00
2022-11-24T03:40:09.925Z,0.00
2022-11-24T03:41:09.883Z,0.00
2022-11-24T03:42:09.868Z,0.00
2022-11-24T03:43:09.850Z,0.00
2022-11-24T03:44:09.858Z,0.00
2022-11-24T03:45:44.177Z,0.00
2022-11-24T03:46:10.908Z,0.00
2022-11-24T03:47:09.797Z,0.00
2022-11-24T03:48:09.788Z,0.00
2022-11-24T03:49:09.773Z,0.00
2022-11-24T03:50:09.788Z,0.00
2022-11-24T03:51:09.738Z,0.00
2022-11-24T03:52:09.743Z,0.00
2022-11-24T03:53:09.724Z,0.00
2022-11-24T03:54:09.775Z,0.00
2022-11-24T03:55:09.727Z,0.00
2022-11-24T03:56:09.689Z,0.00
2022-11-24T03:57:09.676Z,0.00
2022-11-24T03:58:09.667Z,0.00
2022-11-24T03:59:09.637Z,0.00
2022-11-24T04:00:09.658Z,0.00
2022-11-24T04:01:09.620Z,0.00
2022-11-24T04:02:09.620Z,0.00
2022-11-24T04:03:09.692Z,0.00
2022-11-24T04:04:09.642Z,0.00
2022-11-24T04:05:09.600Z,0.00
2022-11-24T04:06:09.564Z,0.00
2022-11-24T04:07:09.614Z,0.00
2022-11-24T04:08:09.550Z,0.00
2022-11-24T04:09:09.508Z,0.00
2022-11-24T04:10:09.535Z,0.00
2022-11-24T04:11:09.508Z,0.00
2022-11-24T04:12:09.486Z,0.00
2022-11-24T04:13:09.465Z,0.00
2022-11-24T04:14:13.580Z,0.00
2022-11-24T04:15:09.481Z,0.00
2022-11-24T04:16:09.496Z,0.00
2022-11-24T04:17:09.415Z,0.00
2022-11-24T04:18:09.397Z,0.00
2022-11-24T04:19:09.394Z,0.00
2022-11-24T04:20:09.414Z,0.00
2022-11-24T04:21:09.374Z,0.00
2022-11-24T04:22:09.357Z,0.00
2022-11-24T04:23:09.348Z,0.00
2022-11-24T04:24:09.327Z,0.00
2022-11-24T04:25:09.337Z,0.00
2022-11-24T04:26:09.293Z,0.00
2022-11-24T04:27:09.303Z,0.00
2022-11-24T04:28:09.264Z,0.00
2022-11-24T04:29:09.872Z,0.00
2022-11-24T04:30:09.283Z,0.00
2022-11-24T04:31:09.250Z,0.00
2022-11-24T04:32:09.227Z,0.00
2022-11-24T04:33:09.214Z,0.00
2022-11-24T04:34:09.203Z,0.00
2022-11-24T04:35:09.221Z,0.00
2022-11-24T04:36:09.185Z,0.00
2022-11-24T04:37:09.174Z,0.00
2022-11-24T04:38:09.155Z,0.00
2022-11-24T04:39:23.026Z,0.00
2022-11-24T04:40:10.146Z,0.00
2022-11-24T04:41:09.126Z,0.00
2022-11-24T04:42:09.093Z,0.00
2022-11-24T04:43:09.075Z,0.00
2022-11-24T04:44:09.070Z,0.00
2022-11-24T04:45:09.080Z,0.00
2022-11-24T04:46:09.105Z,0.00
2022-11-24T04:47:09.047Z,0.00
2022-11-24T04:48:09.010Z,0.00
2022-11-24T04:49:09.002Z,0.00
2022-11-24T04:50:09.011Z,0.00
2022-11-24T04:51:09.045Z,0.00
2022-11-24T04:52:08.950Z,0.00
2022-11-24T04:53:08.962Z,0.00
2022-11-24T04:54:08.940Z,0.00
2022-11-24T04:55:08.971Z,0.00
2022-11-24T04:56:08.955Z,0.00
2022-11-24T04:57:08.899Z,0.00
2022-11-24T04:58:08.901Z,0.00
2022-11-24T04:59:08.949Z,0.00
2022-11-24T05:00:08.879Z,0.00
2022-11-24T05:01:08.869Z,0.00
2022-11-24T05:02:08.869Z,0.00
2022-11-24T05:03:08.819Z,0.00
2022-11-24T05:04:08.840Z,0.00
2022-11-24T05:05:08.820Z,0.00
2022-11-24T05:06:08.797Z,0.00
2022-11-24T05:07:12.317Z,0.00
2022-11-24T05:08:09.768Z,0.00
2022-11-24T05:09:08.729Z,0.00
2022-11-24T05:10:08.777Z,0.00
2022-11-24T05:11:08.710Z,0.00
2022-11-24T05:12:08.698Z,0.00
2022-11-24T05:13:08.677Z,0.00
2022-11-24T05:14:08.688Z,0.00
2022-11-24T05:15:08.679Z,0.00
2022-11-24T05:16:08.687Z,0.00
2022-11-24T05:17:08.647Z,0.00
2022-11-24T05:18:08.627Z,0.00
2022-11-24T05:19:08.614Z,0.00
2022-11-24T05:20:08.633Z,0.00
2022-11-24T05:21:08.590Z,0.00
2022-11-24T05:22:08.575Z,0.00
2022-11-24T05:23:08.555Z,0.00
2022-11-24T05:24:08.551Z,0.00
2022-11-24T05:25:08.585Z,0.00
2022-11-24T05:26:08.537Z,0.00
2022-11-24T05:27:08.517Z,0.00
2022-11-24T05:28:08.507Z,0.00
2022-11-24T05:29:08.578Z,0.00
2022-11-24T05:30:08.481Z,0.00
2022-11-24T05:31:09.485Z,0.00
2022-11-24T05:32:08.440Z,0.00
2022-11-24T05:33:08.418Z,0.00
2022-11-24T05:34:08.427Z,0.00
2022-11-24T05:35:08.401Z,0.00
2022-11-24T05:36:08.477Z,0.00
2022-11-24T05:37:08.375Z,0.00
2022-11-24T05:38:08.369Z,0.00
2022-11-24T05:39:08.613Z,0.00
2022-11-24T05:40:08.384Z,0.00
2022-11-24T05:41:08.344Z,0.00
2022-11-24T05:42:08.313Z,0.00
2022-11-24T05:43:08.296Z,0.00
2022-11-24T05:44:08.291Z,0.00
2022-11-24T05:45:08.292Z,0.00
2022-11-24T05:46:08.294Z,0.00
2022-11-24T05:47:08.320Z,0.00
2022-11-24T05:48:08.247Z,0.00
2022-11-24T05:49:08.233Z,0.00
2022-11-24T05:50:08.205Z,0.00
2022-11-24T05:51:09.529Z,0.00
2022-11-24T05:52:08.294Z,0.00
2022-11-24T05:53:08.766Z,0.00
2022-11-24T05:54:08.162Z,0.00
2022-11-24T05:55:08.283Z,0.00
2022-11-24T05:56:08.157Z,0.00
2022-11-24T05:57:08.133Z,0.00
2022-11-24T05:58:08.130Z,0.00
2022-11-24T05:59:09.927Z,0.00
2022-11-24T06:00:08.151Z,0.00
2022-11-24T06:01:08.105Z,0.00
2022-11-24T06:02:08.167Z,0.00
2022-11-24T06:03:08.165Z,0.00
2022-11-24T06:04:08.055Z,0.00
2022-11-24T06:05:08.011Z,0.00
2022-11-24T06:06:08.032Z,0.00
2022-11-24T06:07:07.999Z,0.00
2022-11-24T06:08:08.134Z,0.00
2022-11-24T06:09:07.968Z,0.00
2022-11-24T06:10:07.942Z,0.00
2022-11-24T06:11:08.028Z,0.00
2022-11-24T06:12:07.950Z,0.00
2022-11-24T06:13:07.989Z,0.00
2022-11-24T06:14:11.162Z,0.00
2022-11-24T06:15:07.898Z,0.00
2022-11-24T06:16:07.914Z,0.00
2022-11-24T06:17:07.850Z,0.00
2022-11-24T06:18:07.841Z,0.00
2022-11-24T06:19:07.831Z,0.00
2022-11-24T06:20:07.850Z,0.00
2022-11-24T06:21:11.251Z,0.00
2022-11-24T06:22:07.800Z,0.00
2022-11-24T06:23:07.912Z,1.00
2022-11-24T06:24:08.036Z,0.00
2022-11-24T06:25:07.782Z,0.00
2022-11-24T06:26:07.782Z,1.00
2022-11-24T06:27:07.704Z,1.00
2022-11-24T06:28:07.664Z,1.00
2022-11-24T06:29:07.722Z,0.00
2022-11-24T06:30:07.866Z,0.00
2022-11-24T06:31:07.737Z,2.00
2022-11-24T06:32:07.717Z,1.00
2022-11-24T06:33:07.609Z,1.00
2022-11-24T06:34:07.586Z,1.00
2022-11-24T06:35:07.618Z,0.00
2022-11-24T06:36:07.602Z,2.00
2022-11-24T06:37:07.540Z,1.00
2022-11-24T06:38:08.489Z,5.00
2022-11-24T06:39:07.525Z,4.00
2022-11-24T06:40:07.507Z,6.00
2022-11-24T06:41:07.519Z,8.00
2022-11-24T06:42:07.477Z,6.00
2022-11-24T06:43:07.656Z,7.00
2022-11-24T06:44:07.469Z,5.00
2022-11-24T06:45:09.428Z,6.00
2022-11-24T06:46:07.546Z,6.00
2022-11-24T06:47:07.420Z,4.00
2022-11-24T06:48:07.402Z,7.00
2022-11-24T06:49:07.389Z,14.00
2022-11-24T06:50:07.386Z,14.00
2022-11-24T06:51:07.386Z,19.00
2022-11-24T06:52:07.357Z,22.00
2022-11-24T06:53:07.338Z,27.00
2022-11-24T06:54:07.326Z,31.00
2022-11-24T06:55:07.307Z,33.00
2022-11-24T06:56:12.134Z,34.00
2022-11-24T06:57:08.284Z,31.00
2022-11-24T06:58:07.266Z,30.00
2022-11-24T06:59:07.270Z,28.00
2022-11-24T07:00:07.246Z,27.00
2022-11-24T07:01:07.269Z,27.00
2022-11-24T07:02:07.225Z,21.00
2022-11-24T07:03:07.219Z,20.00
2022-11-24T07:04:07.215Z,18.00
2022-11-24T07:05:07.187Z,26.00
2022-11-24T07:06:07.375Z,32.00
2022-11-24T07:07:07.493Z,34.00
2022-11-24T07:08:07.158Z,33.00
2022-11-24T07:09:07.124Z,32.00
2022-11-24T07:10:07.146Z,42.00
2022-11-24T07:11:07.135Z,47.00
2022-11-24T07:12:07.091Z,47.00
2022-11-24T07:13:07.085Z,52.00
2022-11-24T07:14:07.144Z,52.00
2022-11-24T07:15:07.048Z,52.00
2022-11-24T07:16:07.126Z,49.00
2022-11-24T07:17:07.048Z,47.00
2022-11-24T07:18:07.025Z,49.00
2022-11-24T07:19:07.027Z,49.00
2022-11-24T07:20:06.996Z,54.00
2022-11-24T07:21:07.073Z,58.00
2022-11-24T07:22:06.973Z,74.00
2022-11-24T07:23:06.947Z,67.00
2022-11-24T07:24:06.957Z,59.00
2022-11-24T07:25:06.925Z,53.00
2022-11-24T07:26:07.277Z,55.00
2022-11-24T07:27:06.894Z,54.00
2022-11-24T07:28:06.884Z,51.00
2022-11-24T07:29:06.872Z,53.00
2022-11-24T07:30:06.861Z,64.00
2022-11-24T07:31:06.873Z,76.00
2022-11-24T07:32:06.861Z,98.00
2022-11-24T07:33:06.885Z,98.00
2022-11-24T07:34:06.822Z,91.00
2022-11-24T07:35:06.800Z,84.00
2022-11-24T07:36:06.821Z,88.00
2022-11-24T07:37:06.768Z,103.00
2022-11-24T07:38:06.790Z,147.00
2022-11-24T07:39:06.918Z,188.00
2022-11-24T07:40:06.730Z,214.00
2022-11-24T07:41:06.745Z,212.00
2022-11-24T07:42:06.901Z,200.00
2022-11-24T07:43:06.703Z,184.00
2022-11-24T07:44:10.901Z,165.00
2022-11-24T07:45:06.681Z,152.00
2022-11-24T07:46:06.817Z,176.00
2022-11-24T07:47:06.763Z,185.00
2022-11-24T07:48:06.771Z,204.00
2022-11-24T07:49:06.758Z,252.00
2022-11-24T07:50:06.601Z,287.00
2022-11-24T07:51:06.647Z,259.00
2022-11-24T07:52:06.572Z,261.00
2022-11-24T07:53:06.550Z,248.00
2022-11-24T07:54:06.574Z,264.00
2022-11-24T07:55:06.592Z,300.00
2022-11-24T07:56:06.721Z,334.00
2022-11-24T07:57:06.509Z,366.00
2022-11-24T07:58:06.500Z,351.00
2022-11-24T07:59:06.481Z,350.00
2022-11-24T08:00:06.469Z,376.00
2022-11-24T08:01:06.505Z,372.00
2022-11-24T08:02:06.563Z,366.00
2022-11-24T08:03:06.428Z,357.00
2022-11-24T08:04:06.481Z,322.00
2022-11-24T08:05:06.410Z,309.00
2022-11-24T08:07:07.589Z,351.00
2022-11-24T08:08:06.373Z,373.00
2022-11-24T08:09:06.349Z,406.00
2022-11-24T08:10:06.345Z,408.00
2022-11-24T08:11:06.361Z,386.00
2022-11-24T08:12:06.318Z,391.00
2022-11-24T08:13:06.294Z,346.00
2022-11-24T08:14:06.287Z,246.00
2022-11-24T08:15:10.881Z,183.00
2022-11-24T08:16:07.373Z,161.00
2022-11-24T08:17:06.294Z,190.00
2022-11-24T08:18:06.227Z,246.00
2022-11-24T08:19:06.216Z,310.00
2022-11-24T08:20:06.215Z,291.00
2022-11-24T08:21:06.204Z,215.00
2022-11-24T08:22:06.245Z,145.00
2022-11-24T08:23:06.174Z,60.00
2022-11-24T08:24:06.158Z,79.00
2022-11-24T08:25:06.137Z,139.00
2022-11-24T08:26:06.143Z,250.00
2022-11-24T08:27:06.155Z,340.00
2022-11-24T08:28:06.115Z,437.00
2022-11-24T08:29:06.087Z,483.00
2022-11-24T08:30:06.096Z,488.00
2022-11-24T08:31:06.077Z,477.00
2022-11-24T08:32:06.123Z,434.00
2022-11-24T08:33:06.046Z,420.00
2022-11-24T08:34:06.027Z,436.00
2022-11-24T08:35:14.018Z,410.00
2022-11-24T08:36:07.018Z,381.00
2022-11-24T08:37:06.023Z,461.00
2022-11-24T08:38:05.995Z,521.00
2022-11-24T08:39:05.976Z,590.00
2022-11-24T08:40:06.100Z,641.00
2022-11-24T08:41:06.795Z,641.00
2022-11-24T08:42:05.954Z,647.00
2022-11-24T08:43:06.029Z,633.00
2022-11-24T08:44:06.486Z,614.00
2022-11-24T08:45:19.831Z,640.00
2022-11-24T08:46:06.928Z,599.00
2022-11-24T08:47:05.898Z,547.00
2022-11-24T08:48:05.842Z,590.00
2022-11-24T08:49:06.004Z,536.00
2022-11-24T08:50:06.003Z,477.00
2022-11-24T08:51:05.823Z,374.00
2022-11-24T08:52:06.015Z,377.00
2022-11-24T08:53:05.808Z,309.00
2022-11-24T08:54:05.937Z,248.00
2022-11-24T08:55:05.747Z,254.00
2022-11-24T08:56:05.906Z,316.00
2022-11-24T08:57:05.773Z,369.00
2022-11-24T08:58:05.760Z,327.00
2022-11-24T08:59:05.777Z,491.00
2022-11-24T09:00:05.691Z,474.00
2022-11-24T09:01:05.756Z,420.00
2022-11-24T09:02:05.774Z,482.00
2022-11-24T09:03:05.666Z,434.00
2022-11-24T09:04:05.695Z,374.00
2022-11-24T09:05:22.477Z,461.00
2022-11-24T09:06:06.612Z,433.00
2022-11-24T09:07:05.631Z,479.00
2022-11-24T09:08:05.603Z,504.00
2022-11-24T09:09:05.574Z,374.00
2022-11-24T09:10:05.684Z,348.00
2022-11-24T09:11:06.471Z,374.00
2022-11-24T09:12:08.687Z,429.00
2022-11-24T09:13:07.432Z,393.00
2022-11-24T09:14:05.509Z,487.00
2022-11-24T09:15:05.490Z,460.00
2022-11-24T09:16:05.503Z,548.00
2022-11-24T09:17:05.644Z,552.00
2022-11-24T09:18:05.466Z,461.00
2022-11-24T09:19:05.441Z,327.00
2022-11-24T09:20:05.442Z,341.00
2022-11-24T09:21:05.429Z,345.00
2022-11-24T09:22:05.430Z,263.00
2022-11-24T09:23:05.399Z,263.00
2022-11-24T09:24:05.380Z,345.00
2022-11-24T09:25:05.376Z,394.00
2022-11-24T09:26:05.355Z,449.00
2022-11-24T09:27:05.371Z,629.00
2022-11-24T09:28:05.329Z,718.00
2022-11-24T09:29:05.323Z,631.00
2022-11-24T09:30:05.290Z,546.00
2022-11-24T09:31:05.351Z,640.00
2022-11-24T09:32:07.103Z,721.00
2022-11-24T09:33:05.268Z,685.00
2022-11-24T09:34:05.260Z,693.00
2022-11-24T09:35:05.240Z,835.00
2022-11-24T09:36:05.228Z,938.00
2022-11-24T09:37:05.249Z,905.00
2022-11-24T09:38:05.199Z,918.00
2022-11-24T09:39:05.344Z,1024.00
2022-11-24T09:40:05.166Z,1192.00
2022-11-24T09:41:05.157Z,1044.00
2022-11-24T09:42:05.166Z,833.00
2022-11-24T09:43:05.140Z,681.00
2022-11-24T09:44:05.368Z,665.00
2022-11-24T09:45:05.109Z,569.00
2022-11-24T09:46:06.334Z,572.00
2022-11-24T09:47:05.146Z,800.00
2022-11-24T09:48:05.067Z,661.00
2022-11-24T09:49:05.078Z,484.00
2022-11-24T09:50:05.121Z,740.00
2022-11-24T09:51:05.038Z,722.00
2022-11-24T09:52:05.046Z,714.00
2022-11-24T09:53:05.284Z,887.00
2022-11-24T09:54:05.217Z,1063.00
2022-11-24T09:55:05.219Z,1110.00
2022-11-24T09:56:05.081Z,1251.00
2022-11-24T09:57:04.986Z,1027.00
2022-11-24T09:58:04.937Z,960.00
2022-11-24T09:59:04.923Z,970.00
2022-11-24T10:00:04.918Z,1025.00
2022-11-24T10:01:05.029Z,1090.00
2022-11-24T10:02:04.984Z,948.00
2022-11-24T10:03:04.883Z,1087.00
2022-11-24T10:04:06.673Z,1071.00
2022-11-24T10:05:05.140Z,1230.00
2022-11-24T10:06:04.838Z,1179.00
2022-11-24T10:07:04.866Z,1205.00
2022-11-24T10:08:04.808Z,1002.00
2022-11-24T10:09:04.795Z,2019.00
2022-11-24T10:10:04.852Z,1362.00
2022-11-24T10:11:04.807Z,1448.00
2022-11-24T10:12:04.791Z,1648.00
2022-11-24T10:13:04.747Z,1263.00
2022-11-24T10:14:04.745Z,668.00
2022-11-24T10:15:04.793Z,876.00
2022-11-24T10:16:04.816Z,2130.00
2022-11-24T10:17:04.727Z,2423.00
2022-11-24T10:18:04.684Z,2043.00
2022-11-24T10:19:04.686Z,2063.00
2022-11-24T10:20:04.720Z,2391.00
2022-11-24T10:21:04.642Z,944.00
2022-11-24T10:22:04.657Z,2457.00
2022-11-24T10:23:04.628Z,1904.00
2022-11-24T10:24:04.596Z,1676.00
2022-11-24T10:25:04.586Z,1621.00
2022-11-24T10:26:04.607Z,1531.00
2022-11-24T10:27:04.595Z,1436.00
2022-11-24T10:28:04.551Z,1770.00
2022-11-24T10:29:04.549Z,1708.00
2022-11-24T10:30:04.545Z,1346.00
2022-11-24T10:31:04.555Z,1576.00
2022-11-24T10:32:04.535Z,2157.00
2022-11-24T10:33:04.948Z,2076.00
2022-11-24T10:34:04.476Z,1804.00
2022-11-24T10:35:04.465Z,1991.00
2022-11-24T10:36:04.443Z,1524.00
2022-11-24T10:37:04.472Z,1489.00
2022-11-24T10:38:04.421Z,1529.00
2022-11-24T10:39:04.415Z,1751.00
2022-11-24T10:40:04.422Z,2001.00
2022-11-24T10:41:04.388Z,726.00
2022-11-24T10:42:04.395Z,2226.00
2022-11-24T10:43:08.563Z,1447.00
2022-11-24T10:44:04.336Z,3163.00
2022-11-24T10:45:04.353Z,1643.00
2022-11-24T10:46:04.427Z,2394.00
2022-11-24T10:47:04.355Z,1923.00
2022-11-24T10:48:04.297Z,1961.00
2022-11-24T10:49:04.279Z,1640.00
2022-11-24T10:50:04.261Z,1151.00
2022-11-24T10:51:04.254Z,920.00
2022-11-24T10:52:04.284Z,796.00
2022-11-24T10:53:04.237Z,1155.00
2022-11-24T10:54:04.225Z,1408.00
2022-11-24T10:55:04.204Z,1929.00
2022-11-24T10:56:04.184Z,1499.00
2022-11-24T10:57:04.251Z,1392.00
2022-11-24T10:58:04.156Z,1921.00
2022-11-24T10:59:04.157Z,2016.00
2022-11-24T11:00:04.147Z,1565.00
2022-11-24T11:01:04.200Z,1331.00
2022-11-24T11:02:04.402Z,1198.00
2022-11-24T11:03:04.122Z,968.00
2022-11-24T11:04:04.076Z,1146.00
2022-11-24T11:05:04.074Z,1625.00
2022-11-24T11:06:04.053Z,1854.00
2022-11-24T11:07:04.080Z,1871.00
2022-11-24T11:08:05.590Z,1834.00
2022-11-24T11:09:04.017Z,1900.00
2022-11-24T11:10:04.006Z,1566.00
2022-11-24T11:11:03.994Z,1547.00
2022-11-24T11:12:27.672Z,1561.00
2022-11-24T11:13:04.979Z,1148.00
2022-11-24T11:14:04.874Z,1132.00
2022-11-24T11:15:03.934Z,1191.00
2022-11-24T11:16:03.960Z,1096.00
2022-11-24T11:17:03.947Z,799.00
2022-11-24T11:18:04.696Z,437.00
2022-11-24T11:19:15.767Z,565.00
2022-11-24T11:20:05.054Z,857.00
2022-11-24T11:21:03.881Z,1050.00
2022-11-24T11:22:03.872Z,1009.00
2022-11-24T11:23:03.832Z,878.00
2022-11-24T11:24:03.814Z,724.00
2022-11-24T11:25:03.822Z,804.00
2022-11-24T11:26:03.792Z,675.00
2022-11-24T11:27:03.814Z,476.00
2022-11-24T11:28:08.601Z,753.00
2022-11-24T11:31:16.713Z,1299.00
2022-11-24T11:34:08.293Z,1100.00
2022-11-24T11:35:04.672Z,1064.00
2022-11-24T11:36:03.671Z,1165.00
2022-11-24T11:37:03.770Z,1283.00
2022-11-24T11:38:03.640Z,1271.00
2022-11-24T11:39:03.632Z,1258.00
2022-11-24T11:40:04.581Z,1147.00
2022-11-24T11:41:03.611Z,1428.00
2022-11-24T11:42:03.613Z,1607.00
2022-11-24T11:43:03.865Z,1181.00
2022-11-24T11:44:03.662Z,1497.00
2022-11-24T11:45:03.661Z,1915.00
2022-11-24T11:46:04.091Z,1887.00
2022-11-24T11:47:04.223Z,1405.00
2022-11-24T11:48:03.670Z,1581.00
2022-11-24T11:49:03.671Z,1565.00
2022-11-24T11:50:03.609Z,1502.00
2022-11-24T11:52:04.643Z,1374.00
2022-11-24T11:53:03.555Z,1114.00
2022-11-24T11:54:03.616Z,1099.00
2022-11-24T11:55:03.593Z,1098.00
2022-11-24T11:56:03.584Z,973.00
2022-11-24T11:57:03.571Z,928.00
2022-11-24T11:58:03.520Z,1233.00
2022-11-24T11:59:03.531Z,988.00
2022-11-24T12:00:03.553Z,1198.00
2022-11-24T12:01:03.435Z,1213.00
2022-11-24T12:02:03.551Z,1219.00
2022-11-24T12:03:03.491Z,1113.00
2022-11-24T12:04:03.545Z,1135.00
2022-11-24T12:05:03.361Z,1067.00
2022-11-24T12:06:03.377Z,899.00
2022-11-24T12:07:03.477Z,930.00
2022-11-24T12:08:09.180Z,1365.00
2022-11-24T12:09:19.934Z,1475.00
2022-11-24T12:10:04.317Z,1393.00
2022-11-24T12:11:03.339Z,1029.00
2022-11-24T12:12:03.421Z,680.00
2022-11-24T12:13:03.289Z,611.00
2022-11-24T12:14:03.277Z,552.00
2022-11-24T12:15:09.043Z,333.00
2022-11-24T12:16:04.301Z,273.00
2022-11-24T12:17:03.311Z,261.00
2022-11-24T12:18:03.228Z,379.00
2022-11-24T12:19:03.199Z,325.00
2022-11-24T12:20:03.225Z,386.00
2022-11-24T12:21:03.210Z,558.00
2022-11-24T12:22:03.239Z,449.00
2022-11-24T12:23:03.170Z,278.00
2022-11-24T12:24:03.100Z,366.00
2022-11-24T12:25:03.254Z,383.00
2022-11-24T12:26:03.121Z,378.00
2022-11-24T12:27:03.169Z,354.00
2022-11-24T12:28:03.097Z,623.00
2022-11-24T12:29:03.095Z,654.00
2022-11-24T12:30:03.032Z,642.00
2022-11-24T12:31:03.156Z,919.00
2022-11-24T12:32:03.195Z,771.00
2022-11-24T12:33:02.921Z,465.00
2022-11-24T12:34:02.919Z,613.00
2022-11-24T12:35:02.900Z,807.00
2022-11-24T12:36:02.875Z,1131.00
2022-11-24T12:37:03.811Z,1259.00
2022-11-24T12:38:02.889Z,928.00
2022-11-24T12:39:02.838Z,654.00
2022-11-24T12:40:02.829Z,704.00
2022-11-24T12:41:25.676Z,777.00
2022-11-24T12:42:03.798Z,695.00
2022-11-24T12:43:02.817Z,465.00
2022-11-24T12:44:02.777Z,518.00
2022-11-24T12:45:02.761Z,543.00
2022-11-24T12:46:02.855Z,678.00
2022-11-24T12:47:02.810Z,848.00
2022-11-24T12:48:02.801Z,1104.00
2022-11-24T12:49:02.719Z,889.00
2022-11-24T12:50:02.709Z,832.00
2022-11-24T12:51:02.704Z,745.00
2022-11-24T12:52:02.669Z,577.00
2022-11-24T12:53:02.776Z,550.00
2022-11-24T12:54:02.647Z,940.00
2022-11-24T12:55:02.637Z,1079.00
2022-11-24T12:56:02.620Z,838.00
2022-11-24T12:57:02.627Z,474.00
2022-11-24T12:58:07.725Z,380.00